Metar z połowy godziny Komunikat METAR ze strony awiacja.imgw.pl Metar G30 EPKT METAR EPKT 200230Z VRB02KT 4000 BR NSC 16/14 Q1017 =